MCAS Cherry Point, North Carolina
Current Conditions -  °F | °C
As of 5:54 AM on Thursday 23 Oct 2014 (Local Time) from KNKT Reporting Station
Clear Clear  
Wind Chill: 45°   Ceiling: Unl
Heat Index: 49°   Visibility: 10mi
Dew Point: 44°   Wind: 9mph
Humidity: 83%   Direction: 300°WNW
Pressure: 29.98"   Gusts: NA
Location:  34.8973°N, 76.9091°W
Report Text: KNKT 230954Z 30008KT 10SM CLR 09/07 A2998 RMK AO2 SLP148 T00940067 $
Loading
Personal Weather Stations






























Interactive Weather Map
Tropical Storm Tracking
New forecast layout! Learn more

10-Day Weather Forecast

Advertisements
Track Severe Weather on mobile